createdAt,value
2023-03-21T00:01:14.968Z,2.18
2023-03-21T00:05:15.980Z,2.21
2023-03-21T00:09:14.911Z,2.16
2023-03-21T00:13:14.851Z,2.16
2023-03-21T00:17:14.772Z,2.13
2023-03-21T00:21:46.242Z,2.11
2023-03-21T00:25:15.753Z,2.13
2023-03-21T00:29:14.760Z,2.18
2023-03-21T00:33:22.369Z,2.07
2023-03-21T00:37:15.639Z,2.04
2023-03-21T00:41:25.870Z,2.10
2023-03-21T00:45:15.585Z,2.14
2023-03-21T00:49:14.489Z,2.09
2023-03-21T00:53:14.953Z,2.02
2023-03-21T00:57:14.448Z,2.03
2023-03-21T01:01:14.466Z,1.93
2023-03-21T01:05:14.358Z,1.95
2023-03-21T01:09:14.338Z,1.93
2023-03-21T01:13:14.244Z,2.00
2023-03-21T01:17:14.257Z,1.94
2023-03-21T01:21:14.181Z,1.87
2023-03-21T01:25:22.304Z,1.88
2023-03-21T01:29:15.170Z,1.89
2023-03-21T01:33:14.145Z,1.86
2023-03-21T01:37:14.093Z,1.83
2023-03-21T01:41:19.439Z,1.85
2023-03-21T01:45:14.981Z,1.83
2023-03-21T01:49:13.993Z,1.84
2023-03-21T01:53:13.939Z,1.81
2023-03-21T01:57:13.906Z,1.85
2023-03-21T02:01:13.868Z,1.79
2023-03-21T02:05:13.791Z,1.82
2023-03-21T02:09:13.840Z,1.72
2023-03-21T02:13:13.738Z,1.71
2023-03-21T02:17:13.735Z,1.69
2023-03-21T02:21:13.788Z,1.70
2023-03-21T02:25:21.830Z,1.72
2023-03-21T02:29:15.417Z,1.72
2023-03-21T02:33:13.689Z,1.68
2023-03-21T02:37:13.660Z,1.69
2023-03-21T02:41:19.048Z,1.68
2023-03-21T02:45:14.574Z,1.68
2023-03-21T02:49:13.571Z,1.63
2023-03-21T02:53:13.497Z,1.65
2023-03-21T02:57:13.443Z,1.66
2023-03-21T03:01:13.509Z,1.61
2023-03-21T03:05:20.760Z,1.60
2023-03-21T03:09:14.438Z,1.60
2023-03-21T03:13:13.347Z,1.59
2023-03-21T03:17:13.317Z,1.55
2023-03-21T03:21:13.285Z,1.56
2023-03-21T03:25:23.164Z,1.56
2023-03-21T03:29:14.227Z,1.58
2023-03-21T03:33:13.160Z,1.51
2023-03-21T03:37:13.082Z,1.52
2023-03-21T03:41:13.096Z,1.49
2023-03-21T03:45:13.060Z,1.51
2023-03-21T03:49:13.473Z,1.55
2023-03-21T03:53:18.176Z,1.49
2023-03-21T03:57:14.039Z,1.48
2023-03-21T04:01:12.906Z,1.48
2023-03-21T04:05:12.841Z,1.51
2023-03-21T04:09:20.906Z,1.46
2023-03-21T04:13:13.816Z,1.47
2023-03-21T04:17:12.772Z,1.42
2023-03-21T04:21:12.683Z,1.43
2023-03-21T04:25:14.164Z,1.46
2023-03-21T04:29:12.625Z,1.48
2023-03-21T04:33:12.637Z,1.42
2023-03-21T04:37:12.557Z,1.45
2023-03-21T04:41:12.506Z,1.42
2023-03-21T04:45:12.453Z,1.41
2023-03-21T04:49:12.436Z,1.39
2023-03-21T04:53:12.401Z,1.35
2023-03-21T04:57:12.433Z,1.37
2023-03-21T05:01:12.372Z,1.37
2023-03-21T05:05:12.342Z,1.22
2023-03-21T05:09:12.239Z,1.12
2023-03-21T05:13:12.193Z,1.05
2023-03-21T05:17:12.149Z,1.01
2023-03-21T05:21:12.105Z,0.98
2023-03-21T05:25:12.109Z,0.95
2023-03-21T05:29:12.101Z,0.88
2023-03-21T05:33:12.043Z,0.93
2023-03-21T05:37:12.011Z,0.89
2023-03-21T05:41:11.967Z,0.87
2023-03-21T05:45:11.896Z,0.94
2023-03-21T05:49:11.853Z,0.94
2023-03-21T05:53:11.856Z,0.92
2023-03-21T05:57:11.772Z,0.89
2023-03-21T06:01:11.778Z,0.88
2023-03-21T06:05:11.695Z,0.87
2023-03-21T06:09:11.688Z,0.87
2023-03-21T06:13:11.650Z,0.82
2023-03-21T06:17:11.638Z,0.77
2023-03-21T06:21:11.607Z,0.76
2023-03-21T06:25:11.532Z,0.69
2023-03-21T06:29:11.489Z,0.66
2023-03-21T06:33:11.624Z,0.75
2023-03-21T06:37:11.726Z,0.87
2023-03-21T06:41:12.091Z,0.84
2023-03-21T06:45:12.096Z,0.92
2023-03-21T06:49:12.564Z,0.83
2023-03-21T06:53:12.327Z,0.88
2023-03-21T06:57:12.400Z,0.89
2023-03-21T07:01:12.357Z,0.88
2023-03-21T07:05:12.442Z,0.87
2023-03-21T07:09:12.376Z,0.89
2023-03-21T07:13:12.366Z,0.90
2023-03-21T07:17:12.428Z,0.87
2023-03-21T07:21:12.422Z,0.87
2023-03-21T07:25:12.454Z,0.85
2023-03-21T07:29:12.367Z,0.85
2023-03-21T07:33:12.510Z,0.87
2023-03-21T07:37:12.568Z,0.91
2023-03-21T07:41:12.632Z,1.18
2023-03-21T07:45:12.310Z,1.78
2023-03-21T07:49:12.437Z,1.82
2023-03-21T07:53:12.296Z,1.78
2023-03-21T07:57:13.779Z,1.41
2023-03-21T08:01:12.312Z,1.53
2023-03-21T08:05:12.418Z,1.30
2023-03-21T08:09:12.545Z,1.23
2023-03-21T08:13:12.605Z,1.17
2023-03-21T08:17:12.645Z,1.16
2023-03-21T08:21:12.755Z,1.25
2023-03-21T08:25:12.956Z,1.24
2023-03-21T08:29:12.879Z,1.30
2023-03-21T08:33:12.848Z,1.38
2023-03-21T08:37:13.153Z,1.33
2023-03-21T08:41:12.798Z,1.27
2023-03-21T08:45:12.723Z,1.18
2023-03-21T08:49:12.782Z,1.06
2023-03-21T08:53:12.676Z,1.03
2023-03-21T08:57:12.634Z,0.99
2023-03-21T09:01:12.593Z,0.96
2023-03-21T09:05:12.578Z,0.94
2023-03-21T09:09:12.511Z,0.95
2023-03-21T09:13:12.475Z,0.90
2023-03-21T09:17:12.435Z,0.85
2023-03-21T09:21:12.433Z,0.76
2023-03-21T09:25:12.390Z,0.73
2023-03-21T09:29:12.370Z,0.74
2023-03-21T09:33:12.343Z,0.52
2023-03-21T09:37:12.330Z,0.72
2023-03-21T09:41:12.248Z,0.65
2023-03-21T09:45:12.230Z,0.52
2023-03-21T09:49:12.218Z,0.70
2023-03-21T09:53:12.121Z,0.69
2023-03-21T09:57:12.108Z,0.70
2023-03-21T10:01:12.102Z,0.76
2023-03-21T10:05:12.092Z,0.74
2023-03-21T10:09:12.150Z,0.74
2023-03-21T10:13:12.000Z,0.82
2023-03-21T10:17:11.933Z,0.76
2023-03-21T10:21:12.137Z,0.81
2023-03-21T10:25:12.207Z,0.74
2023-03-21T10:29:11.929Z,0.78
2023-03-21T10:33:12.387Z,0.71
2023-03-21T10:37:11.821Z,0.82
2023-03-21T10:41:11.851Z,0.87
2023-03-21T10:45:12.107Z,0.84
2023-03-21T10:49:11.751Z,0.84
2023-03-21T10:53:11.646Z,0.70
2023-03-21T10:57:11.649Z,0.53
2023-03-21T11:01:11.648Z,0.65
2023-03-21T11:05:11.782Z,0.63
2023-03-21T11:09:11.694Z,0.63
2023-03-21T11:13:11.780Z,0.59
2023-03-21T11:17:11.659Z,0.62
2023-03-21T11:21:11.621Z,0.76
2023-03-21T11:25:11.606Z,0.76
2023-03-21T11:29:11.645Z,0.98
2023-03-21T11:33:11.545Z,0.87
2023-03-21T11:37:11.513Z,0.94
2023-03-21T11:41:11.474Z,0.87
2023-03-21T11:45:11.450Z,0.82
2023-03-21T11:49:11.365Z,0.60
2023-03-21T11:53:11.354Z,0.51
2023-03-21T11:57:11.424Z,0.53
2023-03-21T12:01:11.620Z,0.53
2023-03-21T12:05:11.719Z,0.56
2023-03-21T12:09:11.919Z,0.59
2023-03-21T12:13:12.145Z,0.63
2023-03-21T12:17:12.338Z,0.69
2023-03-21T12:21:12.649Z,0.81
2023-03-21T12:25:12.669Z,0.92
2023-03-21T12:29:12.989Z,0.90
2023-03-21T12:33:13.067Z,0.85
2023-03-21T12:37:13.226Z,0.93
2023-03-21T12:41:13.402Z,0.80
2023-03-21T12:45:15.729Z,0.72
2023-03-21T12:49:13.684Z,0.59
2023-03-21T12:53:13.905Z,0.64
2023-03-21T12:57:14.086Z,0.60
2023-03-21T13:01:14.437Z,0.56
2023-03-21T13:05:14.482Z,0.70
2023-03-21T13:09:14.672Z,0.61
2023-03-21T13:13:14.867Z,0.63
2023-03-21T13:17:15.123Z,0.60
2023-03-21T13:21:15.282Z,0.65
2023-03-21T13:25:15.399Z,0.76
2023-03-21T13:29:15.584Z,0.79
2023-03-21T13:33:15.833Z,0.67
2023-03-21T13:37:15.955Z,0.64
2023-03-21T13:41:16.138Z,0.62
2023-03-21T13:45:16.300Z,0.56
2023-03-21T13:49:16.564Z,0.76
2023-03-21T13:53:16.701Z,0.70
2023-03-21T13:57:16.848Z,0.75
2023-03-21T14:01:17.023Z,0.82
2023-03-21T14:05:17.453Z,0.83
2023-03-21T14:09:17.446Z,0.72
2023-03-21T14:13:17.670Z,0.70
2023-03-21T14:17:17.848Z,0.75
2023-03-21T14:21:23.742Z,0.88
2023-03-21T14:25:18.984Z,0.89
2023-03-21T14:29:25.794Z,0.91
2023-03-21T14:33:18.930Z,0.90
2023-03-21T14:37:17.959Z,0.86
2023-03-21T14:41:18.062Z,0.85
2023-03-21T14:45:20.237Z,0.84
2023-03-21T14:49:18.218Z,0.82
2023-03-21T14:53:18.265Z,0.76
2023-03-21T14:57:18.192Z,0.66
2023-03-21T15:01:18.123Z,0.62
2023-03-21T15:05:18.095Z,0.65
2023-03-21T15:09:18.103Z,0.70
2023-03-21T15:13:18.044Z,0.74
2023-03-21T15:17:17.965Z,0.77
2023-03-21T15:21:17.924Z,0.82
2023-03-21T15:25:18.166Z,0.81
2023-03-21T15:29:18.022Z,0.87
2023-03-21T15:33:18.029Z,0.87
2023-03-21T15:37:17.945Z,0.88
2023-03-21T15:41:18.024Z,0.89
2023-03-21T15:45:17.868Z,0.91
2023-03-21T15:49:17.894Z,0.91
2023-03-21T15:53:18.232Z,0.85
2023-03-21T15:57:17.900Z,0.80
2023-03-21T16:01:17.758Z,0.77
2023-03-21T16:05:17.840Z,0.82
2023-03-21T16:09:17.896Z,0.81
2023-03-21T16:13:17.878Z,0.90
2023-03-21T16:17:17.777Z,0.86
2023-03-21T16:21:17.745Z,0.92
2023-03-21T16:25:17.702Z,0.84
2023-03-21T16:29:17.655Z,0.89
2023-03-21T16:33:17.618Z,0.92
2023-03-21T16:37:17.632Z,0.95
2023-03-21T16:41:17.561Z,0.94
2023-03-21T16:45:17.499Z,0.92
2023-03-21T16:49:17.483Z,0.94
2023-03-21T16:53:17.406Z,0.92
2023-03-21T16:57:17.407Z,0.93
2023-03-21T17:01:17.378Z,0.92
2023-03-21T17:05:17.333Z,0.92
2023-03-21T17:09:17.755Z,0.95
2023-03-21T17:13:17.267Z,1.01
2023-03-21T17:17:17.190Z,1.15
2023-03-21T17:21:17.396Z,1.25
2023-03-21T17:25:17.334Z,1.33
2023-03-21T17:29:17.314Z,1.36
2023-03-21T17:33:17.230Z,1.40
2023-03-21T17:37:17.209Z,1.45
2023-03-21T17:41:17.228Z,1.50
2023-03-21T17:45:17.126Z,1.59
2023-03-21T17:49:17.099Z,1.63
2023-03-21T17:53:17.095Z,1.66
2023-03-21T17:57:17.051Z,1.70
2023-03-21T18:01:17.028Z,1.69
2023-03-21T18:05:17.081Z,1.73
2023-03-21T18:09:19.887Z,1.79
2023-03-21T18:13:17.203Z,1.78
2023-03-21T18:17:17.189Z,1.83
2023-03-21T18:21:19.601Z,1.85
2023-03-21T18:25:17.138Z,1.83
2023-03-21T18:33:18.042Z,1.77
2023-03-21T18:37:17.000Z,1.77
2023-03-21T18:41:17.026Z,1.73
2023-03-21T18:45:17.007Z,1.71
2023-03-21T18:53:17.947Z,1.63
2023-03-21T18:57:37.106Z,1.55
2023-03-21T19:01:18.436Z,1.42
2023-03-21T19:05:17.090Z,1.56
2023-03-21T19:09:18.117Z,1.45
2023-03-21T19:13:16.718Z,1.47
2023-03-21T19:18:15.337Z,1.30
2023-03-21T19:21:17.679Z,1.26
2023-03-21T19:25:16.677Z,1.15
2023-03-21T19:29:16.609Z,1.32
2023-03-21T19:33:16.556Z,1.27
2023-03-21T19:37:16.525Z,1.03
2023-03-21T19:41:16.567Z,0.93
2023-03-21T19:45:16.466Z,1.17
2023-03-21T19:49:17.816Z,1.28
2023-03-21T19:53:16.424Z,1.34
2023-03-21T19:57:16.337Z,1.37
2023-03-21T20:01:16.409Z,1.38
2023-03-21T20:05:16.306Z,1.38
2023-03-21T20:09:50.566Z,1.36
2023-03-21T20:13:17.217Z,1.36
2023-03-21T20:17:16.358Z,1.33
2023-03-21T20:21:21.492Z,1.28
2023-03-21T20:25:17.117Z,1.29
2023-03-21T20:33:17.008Z,1.27
2023-03-21T20:37:15.970Z,1.21
2023-03-21T20:41:16.002Z,1.17
2023-03-21T20:45:16.108Z,1.15
2023-03-21T20:49:16.123Z,1.18
2023-03-21T20:53:16.223Z,1.20
2023-03-21T20:57:16.244Z,1.19
2023-03-21T21:01:16.220Z,1.14
2023-03-21T21:05:34.559Z,1.16
2023-03-21T21:09:17.251Z,1.17
2023-03-21T21:13:16.104Z,1.13
2023-03-21T21:17:54.581Z,1.10
2023-03-21T21:21:17.058Z,1.10
2023-03-21T21:25:16.041Z,1.06
2023-03-21T21:29:15.982Z,1.08
2023-03-21T21:33:15.935Z,1.06
2023-03-21T21:37:15.861Z,1.02
2023-03-21T21:41:15.893Z,1.01
2023-03-21T21:45:15.857Z,1.02
2023-03-21T21:49:15.824Z,1.01
2023-03-21T21:53:15.778Z,0.97
2023-03-21T21:57:15.686Z,0.94
2023-03-21T22:01:15.736Z,0.98
2023-03-21T22:05:15.687Z,0.94
2023-03-21T22:09:15.772Z,0.93
2023-03-21T22:13:15.691Z,0.93
2023-03-21T22:17:15.668Z,0.90
2023-03-21T22:21:15.687Z,0.94
2023-03-21T22:25:15.664Z,0.92
2023-03-21T22:29:15.641Z,0.89
2023-03-21T22:33:15.635Z,0.92
2023-03-21T22:37:15.602Z,0.90
2023-03-21T22:41:15.628Z,0.90
2023-03-21T22:45:15.613Z,0.92
2023-03-21T22:49:15.665Z,0.92
2023-03-21T22:53:15.671Z,0.94
2023-03-21T22:57:15.690Z,0.93
2023-03-21T23:01:18.693Z,0.94
2023-03-21T23:05:15.682Z,0.94
2023-03-21T23:09:15.631Z,0.95
2023-03-21T23:13:15.607Z,0.95
2023-03-21T23:17:15.520Z,0.95
2023-03-21T23:21:15.474Z,0.99
2023-03-21T23:25:15.475Z,0.99
2023-03-21T23:29:15.452Z,0.97
2023-03-21T23:33:15.352Z,0.95
2023-03-21T23:37:15.387Z,0.97
2023-03-21T23:41:15.323Z,0.98
2023-03-21T23:45:15.252Z,0.97
2023-03-21T23:49:15.247Z,0.98
2023-03-21T23:53:15.210Z,0.99
2023-03-21T23:57:15.208Z,0.97
